Time;durP1;ratioP1;P1;durP2;ratioP2;P2;SDS_P1;SDS_P2;PMS_P1;PMS_P2;Temp;Humidity;BMP_temperature;BMP_pressure;BME280_temperature;BME280_humidity;BME280_pressure;Samples;Min_cycle;Max_cycle;Signal;HPM_P1;HPM_P2
2021/08/20 00:01:49;;;;;;;10.63;8.27;;;15.50;99.90;;;;;;4998291;28;20220;-80
2021/08/20 00:04:15;;;;;;;11.10;9.07;;;15.50;99.90;;;;;;4998091;28;20216;-80
2021/08/20 00:06:40;;;;;;;11.10;9.27;;;15.50;99.90;;;;;;4981680;28;20183;-80
2021/08/20 00:09:06;;;;;;;13.80;9.67;;;15.40;99.90;;;;;;4981727;28;20648;-81
2021/08/20 00:11:32;;;;;;;11.60;9.53;;;15.40;99.90;;;;;;4997534;28;20195;-81
2021/08/20 00:13:57;;;;;;;12.33;9.20;;;15.30;99.90;;;;;;4980952;28;20687;-80
2021/08/20 00:16:23;;;;;;;14.53;9.23;;;15.30;99.90;;;;;;4980677;28;20188;-80
2021/08/20 00:18:48;;;;;;;10.13;9.00;;;15.40;99.90;;;;;;4980327;28;20188;-80
2021/08/20 00:21:14;;;;;;;11.37;9.03;;;15.30;99.90;;;;;;4997156;28;20176;-80
2021/08/20 00:23:39;;;;;;;10.27;8.70;;;15.30;99.90;;;;;;4997191;28;20211;-80
2021/08/20 00:26:05;;;;;;;11.00;8.80;;;15.40;99.90;;;;;;4997652;28;20256;-80
2021/08/20 00:28:30;;;;;;;10.90;8.80;;;15.30;99.90;;;;;;4997064;28;20223;-80
2021/08/20 00:30:56;;;;;;;11.50;9.17;;;15.30;99.90;;;;;;4996703;28;20183;-80
2021/08/20 00:33:22;;;;;;;11.83;9.00;;;15.30;99.90;;;;;;4980309;28;20211;-81
2021/08/20 00:35:47;;;;;;;10.47;8.30;;;15.30;99.90;;;;;;4980708;28;20271;-80
2021/08/20 00:38:13;;;;;;;12.27;8.87;;;15.30;99.90;;;;;;4980105;28;20246;-80
2021/08/20 00:40:39;;;;;;;10.07;8.80;;;15.20;99.90;;;;;;4996433;28;20204;-80
2021/08/20 00:43:05;;;;;;;10.00;8.20;;;15.20;99.90;;;;;;4996447;28;20231;-80
2021/08/20 00:45:31;;;;;;;10.90;8.57;;;15.20;99.90;;;;;;4980793;28;20635;-80
2021/08/20 00:47:56;;;;;;;11.00;8.40;;;15.20;99.90;;;;;;4980459;28;20188;-80
2021/08/20 00:50:22;;;;;;;9.43;8.43;;;15.20;99.90;;;;;;4996298;28;20180;-80
2021/08/20 00:52:47;;;;;;;11.13;8.83;;;15.20;99.90;;;;;;4980183;28;20202;-80
2021/08/20 00:55:14;;;;;;;10.07;8.70;;;15.20;99.90;;;;;;4980201;28;20207;-80
2021/08/20 00:57:40;;;;;;;12.93;8.20;;;15.20;99.90;;;;;;4980042;28;20188;-80
2021/08/20 01:00:06;;;;;;;8.70;7.37;;;15.20;99.90;;;;;;4980349;28;20184;-80
2021/08/20 01:02:32;;;;;;;10.27;8.40;;;15.20;99.90;;;;;;4996022;28;20208;-80
2021/08/20 01:04:58;;;;;;;9.23;8.17;;;15.20;99.90;;;;;;4996027;28;20222;-80
2021/08/20 01:07:23;;;;;;;14.20;8.73;;;15.20;99.90;;;;;;4996383;28;20711;-80
2021/08/20 01:09:49;;;;;;;11.50;8.53;;;15.20;99.90;;;;;;4996357;28;20192;-80
2021/08/20 01:12:15;;;;;;;9.53;8.40;;;15.20;99.90;;;;;;4980413;28;20187;-81
2021/08/20 01:14:40;;;;;;;9.57;8.13;;;15.20;99.90;;;;;;4996252;28;20212;-80
2021/08/20 01:17:07;;;;;;;9.47;8.47;;;15.20;99.90;;;;;;4979788;28;20180;-80
2021/08/20 01:19:33;;;;;;;14.33;8.53;;;15.20;99.90;;;;;;4996234;28;20187;-80
2021/08/20 01:21:59;;;;;;;12.87;8.40;;;15.10;99.90;;;;;;4980287;28;20239;-80
2021/08/20 01:24:26;;;;;;;11.80;8.57;;;15.20;99.90;;;;;;4995939;28;20267;-80
2021/08/20 01:26:52;;;;;;;10.67;8.20;;;15.20;99.90;;;;;;4979368;28;20195;-80
2021/08/20 01:29:19;;;;;;;9.43;8.30;;;15.20;99.90;;;;;;4979903;28;20181;-80
2021/08/20 01:31:44;;;;;;;10.07;8.27;;;15.20;99.90;;;;;;4996532;28;20222;-80
2021/08/20 01:34:11;;;;;;;11.27;8.57;;;15.20;99.90;;;;;;4996034;28;20558;-80
2021/08/20 01:36:36;;;;;;;10.87;8.23;;;15.20;99.90;;;;;;4996179;28;20226;-79
2021/08/20 01:39:02;;;;;;;10.30;8.10;;;15.30;99.90;;;;;;4979577;28;20172;-81
2021/08/20 01:41:30;;;;;;;11.33;8.30;;;15.20;99.90;;;;;;4979345;28;20191;-80
2021/08/20 01:43:58;;;;;;;10.27;7.60;;;15.20;99.90;;;;;;4979447;28;20208;-80
2021/08/20 01:46:23;;;;;;;13.03;8.53;;;15.30;99.90;;;;;;4980465;28;20273;-80
2021/08/20 01:48:53;;;;;;;10.37;7.90;;;15.20;99.90;;;;;;4980134;28;20551;-80
2021/08/20 01:51:20;;;;;;;9.63;8.23;;;15.20;99.90;;;;;;4980562;28;20578;-80
2021/08/20 01:53:46;;;;;;;8.93;7.80;;;15.30;99.90;;;;;;4980166;28;20541;-80
2021/08/20 01:56:13;;;;;;;8.90;7.57;;;15.30;99.90;;;;;;4979495;28;20184;-81
2021/08/20 01:58:39;;;;;;;8.80;7.87;;;15.20;99.90;;;;;;4995651;28;20283;-80
2021/08/20 02:01:05;;;;;;;8.80;7.90;;;15.30;99.90;;;;;;4995785;28;20208;-80
2021/08/20 02:03:30;;;;;;;10.97;8.13;;;15.20;99.90;;;;;;4980500;28;20335;-80
2021/08/20 02:05:56;;;;;;;8.23;7.17;;;15.20;99.90;;;;;;4980180;28;20204;-80
2021/08/20 02:08:21;;;;;;;10.47;7.30;;;15.20;99.90;;;;;;4979128;28;20275;-80
2021/08/20 02:10:47;;;;;;;9.30;7.20;;;15.20;99.90;;;;;;4979145;28;20188;-80
2021/08/20 02:13:12;;;;;;;11.20;7.67;;;15.40;99.90;;;;;;4995672;28;20195;-80
2021/08/20 02:15:38;;;;;;;10.87;7.90;;;15.30;99.90;;;;;;4995287;28;20169;-80
2021/08/20 02:18:03;;;;;;;8.90;7.80;;;15.30;99.90;;;;;;4995722;28;20180;-80
2021/08/20 02:20:29;;;;;;;8.50;7.13;;;15.30;99.90;;;;;;4994883;28;20271;-80
2021/08/20 02:22:54;;;;;;;10.40;7.87;;;15.30;99.90;;;;;;4995378;28;20203;-80
2021/08/20 02:25:20;;;;;;;10.33;7.63;;;15.20;99.90;;;;;;4995601;28;20200;-79
2021/08/20 02:27:45;;;;;;;8.60;7.60;;;15.30;99.90;;;;;;4995870;28;20187;-80
2021/08/20 02:30:11;;;;;;;11.10;7.20;;;15.30;99.90;;;;;;4995401;28;20607;-80
2021/08/20 02:32:37;;;;;;;10.43;7.07;;;15.30;99.90;;;;;;4979911;28;20652;-80
2021/08/20 02:35:03;;;;;;;11.63;6.83;;;15.30;99.90;;;;;;4982243;28;20223;-81
2021/08/20 02:37:28;;;;;;;9.83;7.43;;;15.20;99.90;;;;;;4986137;28;20238;-80
2021/08/20 02:39:54;;;;;;;8.50;7.40;;;15.30;99.90;;;;;;4984532;28;20191;-80
2021/08/20 02:42:19;;;;;;;9.83;6.90;;;15.20;99.90;;;;;;5000059;28;20196;-80
2021/08/20 02:44:45;;;;;;;11.57;7.60;;;15.20;99.90;;;;;;4999060;28;20200;-80
2021/08/20 02:47:10;;;;;;;10.17;7.50;;;15.30;99.90;;;;;;5000188;28;20184;-80
2021/08/20 02:49:36;;;;;;;9.50;7.03;;;15.20;99.90;;;;;;4983453;28;20180;-80
2021/08/20 02:52:01;;;;;;;10.93;7.90;;;15.30;99.90;;;;;;4999583;28;20176;-80
2021/08/20 02:54:27;;;;;;;10.10;7.33;;;15.30;99.90;;;;;;4999066;28;20223;-80
2021/08/20 02:56:52;;;;;;;8.37;6.60;;;15.30;99.90;;;;;;4982659;28;20184;-80
2021/08/20 02:59:18;;;;;;;8.10;7.30;;;15.30;99.90;;;;;;4998576;28;20243;-80
2021/08/20 03:01:48;;;;;;;10.33;8.20;;;15.40;99.90;;;;;;4982867;28;20180;-80
2021/08/20 03:04:14;;;;;;;10.67;7.33;;;15.40;99.90;;;;;;4982350;28;20223;-80
2021/08/20 03:06:40;;;;;;;10.00;7.27;;;15.40;99.90;;;;;;4982623;28;20269;-80
2021/08/20 03:09:05;;;;;;;8.23;7.20;;;15.40;99.90;;;;;;4982141;28;20262;-80
2021/08/20 03:11:31;;;;;;;9.50;7.47;;;15.30;99.90;;;;;;4998277;28;20231;-80
2021/08/20 03:13:56;;;;;;;8.77;7.57;;;15.30;99.90;;;;;;4982197;28;20687;-80
2021/08/20 03:16:22;;;;;;;9.63;7.80;;;15.30;99.90;;;;;;4982321;28;20666;-80
2021/08/20 03:18:47;;;;;;;9.03;7.00;;;15.30;99.90;;;;;;4982098;28;20718;-79
2021/08/20 03:21:13;;;;;;;9.13;7.57;;;15.30;99.90;;;;;;4998099;28;20590;-80
2021/08/20 03:23:38;;;;;;;9.37;7.20;;;15.20;99.90;;;;;;4981223;28;20627;-80
2021/08/20 03:26:06;;;;;;;9.93;8.10;;;15.10;99.90;;;;;;4982139;28;20199;-80
2021/08/20 03:28:31;;;;;;;8.77;7.60;;;15.10;99.90;;;;;;4998022;28;20180;-80
2021/08/20 03:30:57;;;;;;;8.87;7.33;;;15.00;99.90;;;;;;4998690;28;20230;-80
2021/08/20 03:33:22;;;;;;;8.10;7.07;;;15.10;99.90;;;;;;4997638;28;20195;-80
2021/08/20 03:35:48;;;;;;;10.63;8.23;;;15.00;99.90;;;;;;4982208;28;20181;-80
2021/08/20 03:38:13;;;;;;;9.47;7.43;;;15.00;99.90;;;;;;4981883;28;20172;-80
2021/08/20 03:40:39;;;;;;;9.57;7.90;;;14.90;99.90;;;;;;4981353;28;20258;-80
2021/08/20 03:43:04;;;;;;;9.53;7.93;;;14.80;99.90;;;;;;4983828;28;20212;-80
2021/08/20 03:45:30;;;;;;;8.63;7.23;;;14.80;99.90;;;;;;4982440;28;20184;-80
2021/08/20 03:47:56;;;;;;;10.83;8.07;;;14.70;99.90;;;;;;4997925;28;20180;-80
2021/08/20 03:50:21;;;;;;;10.47;8.00;;;14.70;99.90;;;;;;4997848;28;20579;-80
2021/08/20 03:52:47;;;;;;;10.23;7.90;;;14.70;99.90;;;;;;4997599;28;20204;-80
2021/08/20 03:55:12;;;;;;;10.07;8.20;;;14.60;99.90;;;;;;4981537;28;20232;-80
2021/08/20 03:57:38;;;;;;;10.53;8.00;;;14.60;99.90;;;;;;4997881;28;20188;-80
2021/08/20 04:00:05;;;;;;;13.60;9.17;;;14.60;99.90;;;;;;4980951;28;20621;-80
2021/08/20 04:02:31;;;;;;;10.30;8.17;;;14.60;99.90;;;;;;4981598;28;20231;-80
2021/08/20 04:04:57;;;;;;;11.53;8.80;;;14.50;99.90;;;;;;4998249;28;20188;-80
2021/08/20 04:07:22;;;;;;;11.00;9.50;;;14.50;99.90;;;;;;4981209;28;20199;-80
2021/08/20 04:09:48;;;;;;;12.83;9.57;;;14.50;99.90;;;;;;4997386;28;20180;-80
2021/08/20 04:12:17;;;;;;;11.37;9.47;;;14.50;99.90;;;;;;4982203;28;20590;-80
2021/08/20 04:14:42;;;;;;;11.93;9.20;;;14.50;99.90;;;;;;4997496;28;20208;-81
2021/08/20 04:17:08;;;;;;;13.87;10.00;;;14.40;99.90;;;;;;4998029;28;20263;-80
2021/08/20 04:19:34;;;;;;;14.17;9.63;;;14.40;99.90;;;;;;4981850;28;20291;-80
2021/08/20 04:21:59;;;;;;;13.23;9.73;;;14.40;99.90;;;;;;4996715;28;20595;-80
2021/08/20 04:24:25;;;;;;;12.47;9.50;;;14.30;99.90;;;;;;4997959;28;20578;-80
2021/08/20 04:26:50;;;;;;;13.70;9.90;;;14.30;99.90;;;;;;4997939;28;20178;-80
2021/08/20 04:29:16;;;;;;;14.17;10.33;;;14.30;99.90;;;;;;4981256;28;20183;-80
2021/08/20 04:31:41;;;;;;;13.97;10.80;;;14.30;99.90;;;;;;4981690;28;20188;-80
2021/08/20 04:34:07;;;;;;;15.60;10.57;;;14.30;99.90;;;;;;4981571;28;20200;-81
2021/08/20 04:36:33;;;;;;;12.87;9.97;;;14.30;99.90;;;;;;4981171;28;20180;-81
2021/08/20 04:38:58;;;;;;;13.53;10.97;;;14.20;99.90;;;;;;4980753;28;20705;-81
2021/08/20 04:41:24;;;;;;;12.30;10.20;;;14.30;99.90;;;;;;4980811;28;20184;-81
2021/08/20 04:43:50;;;;;;;13.77;11.00;;;14.20;99.90;;;;;;4980705;28;20215;-81
2021/08/20 04:46:16;;;;;;;13.53;11.00;;;14.30;99.90;;;;;;4981004;28;20239;-81
2021/08/20 04:48:41;;;;;;;14.23;10.83;;;14.20;99.90;;;;;;4980788;28;20211;-81
2021/08/20 04:51:07;;;;;;;15.27;11.63;;;14.10;99.90;;;;;;4980648;28;20550;-80
2021/08/20 04:53:33;;;;;;;13.27;10.10;;;14.20;99.90;;;;;;4997229;28;20228;-80
2021/08/20 04:55:58;;;;;;;13.70;10.53;;;14.20;99.90;;;;;;4980596;28;20191;-80
2021/08/20 04:58:25;;;;;;;16.47;11.40;;;14.20;99.90;;;;;;4998962;28;20222;-79
2021/08/20 05:00:50;;;;;;;16.67;11.30;;;14.20;99.90;;;;;;4979863;28;20227;-78
2021/08/20 05:03:16;;;;;;;13.57;10.73;;;14.30;99.90;;;;;;4980402;28;20204;-79
2021/08/20 05:05:43;;;;;;;13.90;11.40;;;14.30;99.90;;;;;;4980243;28;20236;-79
2021/08/20 05:08:08;;;;;;;15.53;11.50;;;14.30;99.90;;;;;;4981397;28;20191;-79
2021/08/20 05:10:34;;;;;;;16.70;12.30;;;14.30;99.90;;;;;;4983175;28;20176;-80
2021/08/20 05:12:59;;;;;;;16.53;11.50;;;14.30;99.90;;;;;;4990727;28;20188;-80
2021/08/20 05:15:27;;;;;;;14.37;11.80;;;14.40;99.90;;;;;;4984609;28;20223;-80
2021/08/20 05:17:53;;;;;;;15.53;12.67;;;14.40;99.90;;;;;;4981314;28;20180;-78
2021/08/20 05:20:18;;;;;;;16.70;12.10;;;14.40;99.90;;;;;;4995494;28;20610;-80
2021/08/20 05:22:53;;;;;;;15.27;12.37;;;14.50;99.90;;;;;;4999965;28;20196;-79
2021/08/20 05:25:23;;;;;;;19.67;12.63;;;14.50;99.90;;;;;;4999332;28;20663;-79
2021/08/20 05:27:49;;;;;;;15.13;11.87;;;14.60;99.90;;;;;;4984159;28;20815;-80
2021/08/20 05:30:15;;;;;;;16.60;12.80;;;14.60;99.90;;;;;;4996510;28;20172;-80
2021/08/20 05:32:41;;;;;;;17.87;12.13;;;14.70;99.90;;;;;;4995497;28;20711;-80
2021/08/20 05:35:08;;;;;;;15.77;12.30;;;14.70;99.90;;;;;;4979411;28;20200;-79
2021/08/20 05:37:33;;;;;;;19.63;13.03;;;14.80;99.90;;;;;;4994489;28;20176;-78
2021/08/20 05:39:59;;;;;;;14.83;12.97;;;14.90;99.90;;;;;;4977715;28;20180;-79
2021/08/20 05:42:24;;;;;;;18.10;13.63;;;15.00;99.90;;;;;;4977741;28;20264;-79
2021/08/20 05:44:50;;;;;;;18.20;13.83;;;15.00;99.90;;;;;;4994183;28;20198;-79
2021/08/20 05:47:15;;;;;;;17.00;12.87;;;15.20;99.90;;;;;;4993982;28;20223;-79
2021/08/20 05:49:41;;;;;;;16.43;12.90;;;15.30;99.90;;;;;;4994053;28;20176;-79
2021/08/20 05:52:07;;;;;;;16.13;13.20;;;15.50;99.90;;;;;;4977915;28;20224;-76
2021/08/20 05:54:32;;;;;;;16.30;12.33;;;15.50;99.90;;;;;;4976727;28;20258;-76
2021/08/20 05:56:59;;;;;;;16.67;12.20;;;15.80;99.90;;;;;;4993408;28;20210;-76
2021/08/20 05:59:25;;;;;;;17.17;12.33;;;16.20;99.90;;;;;;4995279;28;20209;-75
2021/08/20 06:01:50;;;;;;;16.77;12.50;;;16.50;99.90;;;;;;5012213;28;20631;-75
2021/08/20 06:04:16;;;;;;;16.80;12.67;;;16.80;99.90;;;;;;5011191;28;20215;-75
2021/08/20 06:06:41;;;;;;;16.23;11.60;;;17.10;99.90;;;;;;5011119;28;20697;-76
2021/08/20 06:09:07;;;;;;;14.20;11.83;;;17.40;99.90;;;;;;4998240;28;20271;-79
2021/08/20 06:11:33;;;;;;;15.63;10.93;;;17.60;99.90;;;;;;4980748;28;20263;-78
2021/08/20 06:13:58;;;;;;;18.70;11.90;;;17.70;99.90;;;;;;5005164;28;20252;-79
2021/08/20 06:16:24;;;;;;;15.03;11.43;;;17.80;99.90;;;;;;5020674;22;20242;-83
2021/08/20 06:18:50;;;;;;;14.43;11.47;;;17.80;99.90;;;;;;4985499;28;20176;-83
2021/08/20 06:21:15;;;;;;;14.40;12.13;;;17.60;99.90;;;;;;5001918;28;20179;-84
2021/08/20 06:23:41;;;;;;;17.00;12.03;;;17.60;99.90;;;;;;5001710;28;20223;-84
2021/08/20 06:26:06;;;;;;;16.43;12.50;;;17.60;99.90;;;;;;5015937;28;20203;-84
2021/08/20 06:28:34;;;;;;;17.30;12.13;;;17.70;99.90;;;;;;5002596;28;20179;-84
2021/08/20 06:31:04;;;;;;;16.03;12.47;;;17.80;99.90;;;;;;4986984;28;20705;-83
2021/08/20 06:33:33;;;;;;;17.63;12.57;;;18.00;99.90;;;;;;5002691;28;20221;-84
2021/08/20 06:36:00;;;;;;;16.30;12.77;;;18.20;99.90;;;;;;5001887;28;20692;-84
2021/08/20 06:38:26;;;;;;;17.27;12.67;;;18.60;99.90;;;;;;5002301;28;20192;-82
2021/08/20 06:40:52;;;;;;;16.80;13.03;;;19.00;99.90;;;;;;4986003;28;20184;-83
2021/08/20 06:43:18;;;;;;;16.53;12.40;;;19.20;99.90;;;;;;5002451;28;20191;-83
2021/08/20 06:45:43;;;;;;;15.93;13.03;;;19.20;99.90;;;;;;5002094;28;20175;-81
2021/08/20 06:48:10;;;;;;;15.80;12.60;;;19.20;99.90;;;;;;4985922;28;20176;-82
2021/08/20 06:50:36;;;;;;;17.87;12.83;;;19.50;99.90;;;;;;4986001;28;20246;-83
2021/08/20 06:53:01;;;;;;;16.77;12.57;;;20.10;99.90;;;;;;4986318;28;20646;-82
2021/08/20 06:55:30;;;;;;;15.93;13.00;;;20.90;99.90;;;;;;5001852;28;20176;-82
2021/08/20 06:57:56;;;;;;;17.13;13.33;;;20.80;99.90;;;;;;4985323;28;20254;-82
2021/08/20 07:00:21;;;;;;;17.67;13.40;;;20.20;99.90;;;;;;5001664;28;20270;-83
2021/08/20 07:02:48;;;;;;;17.63;12.67;;;19.80;99.90;;;;;;4985225;28;20237;-83
2021/08/20 07:05:14;;;;;;;19.17;13.70;;;20.00;99.90;;;;;;4985104;28;20201;-82
2021/08/20 07:07:40;;;;;;;18.00;14.10;;;20.80;99.90;;;;;;5001642;28;20207;-83
2021/08/20 07:10:16;;;;;;;17.80;13.73;;;21.00;99.90;;;;;;5001401;28;20206;-83
2021/08/20 07:12:42;;;;;;;16.40;13.13;;;21.60;99.90;;;;;;4985609;28;20179;-83
2021/08/20 07:15:09;;;;;;;18.07;13.60;;;21.70;99.90;;;;;;4985363;28;20203;-83
2021/08/20 07:17:35;;;;;;;18.13;13.43;;;21.60;99.90;;;;;;4984436;28;20577;-82
2021/08/20 07:20:00;;;;;;;17.03;13.53;;;21.40;99.90;;;;;;4984672;28;20214;-82
2021/08/20 07:22:27;;;;;;;17.83;13.40;;;21.30;99.90;;;;;;4985472;28;20234;-84
2021/08/20 07:24:53;;;;;;;16.97;13.60;;;22.10;99.90;;;;;;4999843;28;20183;-83
2021/08/20 07:27:19;;;;;;;18.63;13.27;;;23.20;99.90;;;;;;4998770;28;20210;-82
2021/08/20 07:29:46;;;;;;;18.77;13.03;;;23.80;99.90;;;;;;4998242;28;20214;-82
2021/08/20 07:32:11;;;;;;;20.13;14.20;;;23.60;99.90;;;;;;4998333;28;20203;-82
2021/08/20 07:34:37;;;;;;;16.77;14.37;;;23.00;99.90;;;;;;5014547;28;20180;-82
2021/08/20 07:37:03;;;;;;;18.47;13.73;;;22.50;99.90;;;;;;4998672;28;20262;-81
2021/08/20 07:39:30;;;;;;;18.47;14.50;;;22.00;99.90;;;;;;4997087;28;20191;-82
2021/08/20 07:41:56;;;;;;;20.20;16.10;;;21.70;99.90;;;;;;4998876;28;20195;-81
2021/08/20 07:44:22;;;;;;;20.60;15.67;;;21.20;99.90;;;;;;5015215;28;20203;-81
2021/08/20 07:46:48;;;;;;;19.07;15.83;;;20.80;99.90;;;;;;4998574;28;20211;-80
2021/08/20 07:49:13;;;;;;;23.07;16.90;;;20.10;99.90;;;;;;4981974;28;20194;-81
2021/08/20 07:51:39;;;;;;;22.03;16.80;;;19.60;99.90;;;;;;4998405;28;20217;-81
2021/08/20 07:54:05;;;;;;;24.03;18.07;;;19.30;99.90;;;;;;4997685;28;20207;-81
2021/08/20 07:56:31;;;;;;;19.23;15.37;;;19.10;99.90;;;;;;4998312;28;20203;-81
2021/08/20 07:58:57;;;;;;;21.97;16.90;;;18.90;99.90;;;;;;4981800;28;20192;-81
2021/08/20 08:01:22;;;;;;;22.57;16.80;;;18.90;99.90;;;;;;4982065;28;20274;-80
2021/08/20 08:03:48;;;;;;;19.43;15.87;;;18.80;99.90;;;;;;4981552;28;20208;-81
2021/08/20 08:06:13;;;;;;;20.23;16.47;;;18.70;99.90;;;;;;4997794;28;20203;-80
2021/08/20 08:08:42;;;;;;;20.07;16.57;;;18.60;99.90;;;;;;4996820;28;20179;-81
2021/08/20 08:11:10;;;;;;;22.40;16.27;;;18.50;99.90;;;;;;4981177;28;20179;-80
2021/08/20 08:13:36;;;;;;;22.00;16.40;;;18.30;99.90;;;;;;4981777;28;20337;-81
2021/08/20 08:16:02;;;;;;;22.57;16.60;;;18.20;99.90;;;;;;4981285;28;20734;-80
2021/08/20 08:18:29;;;;;;;21.70;15.50;;;18.20;99.90;;;;;;4997897;28;20193;-81
2021/08/20 08:20:54;;;;;;;20.83;15.83;;;18.10;99.90;;;;;;4979119;28;20180;-81
2021/08/20 08:23:21;;;;;;;19.93;14.87;;;18.00;99.90;;;;;;4980704;28;20594;-80
2021/08/20 08:25:46;;;;;;;18.70;13.27;;;18.00;99.90;;;;;;4998075;28;20193;-84
2021/08/20 08:28:12;;;;;;;18.00;13.27;;;18.00;99.90;;;;;;4988355;28;20172;-83
2021/08/20 08:30:39;;;;;;;23.87;13.50;;;17.90;99.90;;;;;;4983251;28;20240;-78
2021/08/20 08:33:05;;;;;;;16.93;12.50;;;18.00;99.90;;;;;;4996606;28;20171;-78
2021/08/20 08:35:31;;;;;;;17.07;12.10;;;18.00;99.90;;;;;;4980222;28;20241;-78
2021/08/20 08:38:10;;;;;;;17.40;11.87;;;18.00;99.90;;;;;;4989792;28;20236;-78
2021/08/20 08:40:38;;;;;;;16.93;11.63;;;18.00;99.90;;;;;;4992696;28;20647;-78
2021/08/20 08:43:04;;;;;;;17.63;12.07;;;18.00;99.90;;;;;;4966771;28;20200;-78
2021/08/20 08:45:30;;;;;;;17.03;11.97;;;18.00;99.90;;;;;;4995954;28;20201;-78
2021/08/20 08:47:56;;;;;;;21.37;13.43;;;18.10;99.90;;;;;;4980029;28;20836;-78
2021/08/20 08:50:22;;;;;;;20.90;13.33;;;18.10;99.90;;;;;;4979383;28;20188;-78
2021/08/20 08:52:47;;;;;;;16.90;12.53;;;18.10;99.90;;;;;;4996455;28;20530;-80
2021/08/20 08:55:13;;;;;;;19.87;13.47;;;18.10;99.90;;;;;;5013312;28;20183;-81
2021/08/20 08:57:39;;;;;;;18.37;13.30;;;18.10;99.90;;;;;;4996698;28;20203;-80
2021/08/20 09:00:06;;;;;;;18.70;13.63;;;18.10;99.90;;;;;;4996478;28;20183;-81
2021/08/20 09:02:32;;;;;;;22.43;15.07;;;18.10;99.90;;;;;;4996825;28;20188;-79
2021/08/20 09:05:00;;;;;;;25.80;15.43;;;18.10;99.90;;;;;;4980565;28;20184;-80
2021/08/20 09:07:26;;;;;;;19.47;13.80;;;18.20;99.90;;;;;;4979970;28;20286;-79
2021/08/20 09:10:20;;;;;;;22.67;14.20;;;18.20;99.90;;;;;;4980037;28;20190;-80
2021/08/20 09:12:53;;;;;;;18.97;14.53;;;18.10;99.90;;;;;;4996292;28;20639;-80
2021/08/20 09:15:19;;;;;;;19.67;13.73;;;18.10;99.90;;;;;;5012562;28;20187;-80
2021/08/20 09:17:54;;;;;;;21.97;14.73;;;18.10;99.90;;;;;;4979945;28;20705;-79
2021/08/20 09:20:24;;;;;;;21.97;15.37;;;18.10;99.90;;;;;;4996512;28;20209;-80
2021/08/20 09:22:51;;;;;;;23.07;14.60;;;18.10;99.90;;;;;;4993911;28;20234;-79
2021/08/20 09:25:49;;;;;;;22.03;14.67;;;18.10;99.90;;;;;;4999084;28;20821;-80
2021/08/20 09:28:30;;;;;;;21.97;14.23;;;18.10;99.90;;;;;;5013599;28;20206;-78
2021/08/20 09:30:59;;;;;;;22.93;14.77;;;18.10;99.90;;;;;;4997874;28;20584;-79
2021/08/20 09:33:27;;;;;;;26.07;15.33;;;18.20;99.90;;;;;;5015213;28;20683;-80
2021/08/20 09:36:15;;;;;;;22.00;14.77;;;18.30;99.90;;;;;;4999040;28;20503;-79
2021/08/20 09:38:46;;;;;;;23.20;14.00;;;18.30;99.90;;;;;;4982154;28;20702;-79
2021/08/20 09:41:15;;;;;;;22.43;13.63;;;18.40;99.90;;;;;;4997968;28;20187;-79
2021/08/20 09:43:42;;;;;;;25.17;14.23;;;18.40;99.90;;;;;;5010364;28;20289;-79
2021/08/20 09:46:10;;;;;;;23.20;14.13;;;18.40;99.90;;;;;;5034693;28;20689;-80
2021/08/20 09:48:39;;;;;;;24.43;14.70;;;18.50;99.90;;;;;;5019440;28;20225;-79
2021/08/20 09:51:05;;;;;;;22.57;14.07;;;18.60;99.90;;;;;;5035256;28;20182;-80
2021/08/20 09:53:30;;;;;;;21.37;14.20;;;18.80;99.90;;;;;;5035587;28;20171;-79
2021/08/20 09:55:56;;;;;;;22.40;15.07;;;18.80;99.90;;;;;;5035530;28;20222;-80
2021/08/20 09:58:21;;;;;;;22.27;14.53;;;18.80;99.90;;;;;;5019068;28;20187;-79
2021/08/20 10:00:47;;;;;;;24.63;15.17;;;18.80;99.90;;;;;;5032585;28;20603;-80
2021/08/20 10:03:16;;;;;;;24.37;15.30;;;18.90;99.90;;;;;;5014481;28;20214;-79
2021/08/20 10:05:44;;;;;;;23.13;14.90;;;19.10;99.90;;;;;;5026714;28;20183;-80
2021/08/20 10:08:12;;;;;;;21.73;14.87;;;19.40;99.90;;;;;;4995867;28;20190;-81
2021/08/20 10:10:44;;;;;;;21.90;15.27;;;19.60;99.90;;;;;;4983562;28;20184;-83
2021/08/20 10:13:10;;;;;;;23.17;15.47;;;19.90;99.90;;;;;;5030342;28;20183;-84
2021/08/20 10:15:37;;;;;;;23.83;16.50;;;20.20;99.90;;;;;;5000539;28;20184;-83
2021/08/20 10:18:05;;;;;;;22.63;15.83;;;20.50;99.90;;;;;;4984857;28;20183;-84
2021/08/20 10:20:33;;;;;;;23.77;16.20;;;20.70;99.90;;;;;;5001042;28;20647;-85
2021/08/20 10:22:58;;;;;;;20.93;15.30;;;20.90;99.90;;;;;;5002515;28;20214;-84
2021/08/20 10:25:28;;;;;;;20.83;15.33;;;21.00;99.90;;;;;;4984111;28;20176;-83
2021/08/20 10:27:55;;;;;;;18.40;14.63;;;21.00;99.90;;;;;;5004135;28;20199;-85
2021/08/20 10:30:20;;;;;;;18.33;15.37;;;20.90;99.90;;;;;;4987312;28;20187;-84
2021/08/20 10:33:03;;;;;;;19.93;15.17;;;20.80;99.90;;;;;;4987231;28;20374;-84
2021/08/20 10:35:48;;;;;;;19.27;15.77;;;20.80;99.90;;;;;;4987399;28;20631;-84
2021/08/20 10:38:30;;;;;;;18.63;15.03;;;20.80;99.90;;;;;;5018325;28;20199;-84
2021/08/20 10:41:14;;;;;;;17.60;13.53;;;20.80;99.90;;;;;;4994134;28;20583;-85
2021/08/20 10:43:54;;;;;;;17.53;13.33;;;21.00;99.90;;;;;;5018302;28;20191;-84
2021/08/20 10:46:32;;;;;;;16.47;12.73;;;21.30;99.90;;;;;;4983802;28;20210;-84
2021/08/20 10:49:17;;;;;;;12.77;11.40;;;21.50;99.90;;;;;;5021119;28;20199;-84
2021/08/20 10:51:55;;;;;;;14.00;11.37;;;21.80;99.90;;;;;;5053186;28;20219;-84
2021/08/20 10:54:42;;;;;;;13.77;11.10;;;21.80;99.90;;;;;;5053415;28;20207;-84
2021/08/20 10:57:08;;;;;;;12.10;10.50;;;21.80;99.90;;;;;;5010932;28;20200;-84
2021/08/20 10:59:37;;;;;;;12.23;9.67;;;21.70;99.90;;;;;;5007430;28;20267;-84
2021/08/20 11:02:18;;;;;;;10.70;9.27;;;21.60;99.90;;;;;;5033210;28;20712;-84
2021/08/20 11:05:03;;;;;;;11.23;9.10;;;21.40;99.90;;;;;;5002149;28;20612;-79
2021/08/20 11:07:38;;;;;;;10.60;9.40;;;21.30;99.90;;;;;;5002405;28;20192;-80
2021/08/20 11:10:11;;;;;;;11.40;9.90;;;21.10;99.90;;;;;;5003462;28;20175;-81
2021/08/20 11:12:53;;;;;;;13.03;9.93;;;20.90;99.90;;;;;;5003753;28;20607;-79
2021/08/20 11:15:25;;;;;;;11.40;10.20;;;20.90;99.90;;;;;;5003187;28;20172;-79
2021/08/20 11:18:05;;;;;;;14.20;10.37;;;20.90;99.90;;;;;;4999517;28;20208;-80
2021/08/20 11:20:44;;;;;;;13.87;10.53;;;20.90;99.90;;;;;;4980441;28;20157;-80
2021/08/20 11:23:10;;;;;;;11.23;10.00;;;21.00;99.90;;;;;;4995264;28;20265;-79
2021/08/20 11:25:43;;;;;;;10.47;9.27;;;21.10;99.90;;;;;;4995588;28;20199;-79
2021/08/20 11:28:09;;;;;;;10.50;9.40;;;21.30;99.90;;;;;;5008939;28;20269;-80
2021/08/20 11:30:37;;;;;;;12.00;9.17;;;21.40;99.90;;;;;;5047582;28;20647;-79
2021/08/20 11:33:13;;;;;;;11.03;9.40;;;21.30;99.90;;;;;;5014648;28;20179;-79
2021/08/20 11:35:40;;;;;;;10.43;8.67;;;21.10;99.90;;;;;;5012979;28;20274;-81
2021/08/20 11:38:06;;;;;;;8.70;7.80;;;21.00;99.90;;;;;;5031648;28;20267;-80
2021/08/20 11:40:33;;;;;;;9.30;8.20;;;20.90;99.90;;;;;;4998975;28;20207;-81
2021/08/20 11:43:10;;;;;;;11.20;8.27;;;20.80;99.90;;;;;;4999163;28;20278;-79
2021/08/20 11:45:35;;;;;;;9.60;8.27;;;20.90;99.90;;;;;;4999936;28;20167;-80
2021/08/20 11:48:02;;;;;;;9.87;8.10;;;21.00;99.90;;;;;;5016694;28;20327;-82
2021/08/20 11:50:30;;;;;;;9.50;8.23;;;21.10;99.90;;;;;;5015933;28;20183;-81
2021/08/20 11:52:56;;;;;;;8.57;7.67;;;21.00;99.90;;;;;;5011986;28;20187;-81
2021/08/20 11:55:22;;;;;;;8.80;7.77;;;21.00;99.90;;;;;;5000232;28;20172;-81
2021/08/20 11:57:47;;;;;;;10.50;7.70;;;21.00;99.90;;;;;;4999888;28;20550;-80
2021/08/20 12:00:14;;;;;;;8.23;7.43;;;20.90;99.90;;;;;;4983047;28;20193;-81
2021/08/20 12:02:40;;;;;;;9.03;7.87;;;20.90;99.90;;;;;;4996944;28;20182;-81
2021/08/20 12:05:15;;;;;;;10.87;7.80;;;20.90;99.90;;;;;;4995540;28;20172;-81
2021/08/20 12:07:41;;;;;;;9.37;7.13;;;20.90;99.90;;;;;;4992203;28;20253;-81
2021/08/20 12:10:10;;;;;;;8.23;7.30;;;20.90;99.90;;;;;;5014077;28;20646;-81
2021/08/20 12:12:42;;;;;;;7.93;7.13;;;21.00;99.90;;;;;;5014958;28;20263;-83
2021/08/20 12:15:09;;;;;;;8.07;7.00;;;21.40;99.90;;;;;;4984995;28;20180;-83
2021/08/20 12:17:34;;;;;;;7.00;5.93;;;21.80;99.90;;;;;;5027052;23;20220;-81
2021/08/20 12:20:16;;;;;;;7.00;6.37;;;22.00;99.90;;;;;;4990592;28;20529;-87
2021/08/20 12:22:49;;;;;;;5.40;4.90;;;22.30;99.90;;;;;;4973018;28;20244;-86
2021/08/20 12:25:22;;;;;;;5.63;5.10;;;22.60;99.90;;;;;;5012473;28;20182;-86
2021/08/20 12:27:50;;;;;;;5.53;4.77;;;22.80;99.90;;;;;;5007858;28;20294;-89
2021/08/20 12:30:17;;;;;;;4.73;4.33;;;23.10;99.90;;;;;;4977497;28;20183;-90
2021/08/20 12:32:53;;;;;;;4.43;3.83;;;23.30;99.90;;;;;;4993302;28;20173;-89
2021/08/20 12:35:20;;;;;;;5.23;4.00;;;23.50;99.90;;;;;;4958452;28;20557;-90